Time;durP1;ratioP1;P1;durP2;ratioP2;P2;SDS_P1;SDS_P2;PMS_P1;PMS_P2;Temp;Humidity;BMP_temperature;BMP_pressure;BME280_temperature;BME280_humidity;BME280_pressure;Samples;Min_cycle;Max_cycle;Signal;HPM_P1;HPM_P2
2022/03/02 00:02:12;;;;;;;;;;;;;;;29.39;55.37;101036.47;4988571;28;65715;-37
2022/03/02 00:04:42;;;;;;;;;;;;;;;29.38;55.26;101037.50;4978563;28;69945;-38
2022/03/02 00:07:12;;;;;;;;;;;;;;;29.44;54.99;101043.13;4981129;28;66213;-38
2022/03/02 00:09:43;;;;;;;;;;;;;;;29.50;55.48;101044.97;4975952;28;69815;-36
2022/03/02 00:12:13;;;;;;;;;;;;;;;29.51;55.53;101050.19;4977999;28;65794;-38
2022/03/02 00:14:43;;;;;;;;;;;;;;;29.54;55.71;101054.34;4984916;27;70005;-40
2022/03/02 00:17:13;;;;;;;;;;;;;;;29.61;55.50;101044.38;4992389;28;65515;-39
2022/03/02 00:19:44;;;;;;;;;;;;;;;29.65;55.62;101056.47;4993992;27;69654;-39
2022/03/02 00:22:13;;;;;;;;;;;;;;;29.71;55.90;101049.41;4985904;28;66426;-40
2022/03/02 00:24:43;;;;;;;;;;;;;;;29.74;55.43;101057.09;4997671;27;69744;-40
2022/03/02 00:27:13;;;;;;;;;;;;;;;29.75;55.78;101062.28;4997711;28;66278;-40
2022/03/02 00:29:44;;;;;;;;;;;;;;;29.80;55.69;101065.19;4995832;27;70597;-41
2022/03/02 00:32:14;;;;;;;;;;;;;;;29.81;56.17;101061.47;4976408;28;66236;-43
2022/03/02 00:34:43;;;;;;;;;;;;;;;29.83;56.03;101070.19;4977106;28;69464;-40
2022/03/02 00:37:15;;;;;;;;;;;;;;;29.79;55.14;101066.25;4985646;28;66458;-40
2022/03/02 00:39:45;;;;;;;;;;;;;;;29.81;55.70;101077.69;4975779;28;70070;-41
2022/03/02 00:42:15;;;;;;;;;;;;;;;29.89;55.67;101089.31;4976630;28;66579;-41
2022/03/02 00:44:45;;;;;;;;;;;;;;;29.94;55.57;101081.41;4964963;28;70592;-41
2022/03/02 00:47:15;;;;;;;;;;;;;;;30.00;55.25;101085.97;4965115;28;66071;-41
2022/03/02 00:49:45;;;;;;;;;;;;;;;30.06;55.02;101090.53;4966338;28;69226;-41
2022/03/02 00:52:15;;;;;;;;;;;;;;;30.11;54.93;101085.34;4976067;28;65786;-41
2022/03/02 00:54:45;;;;;;;;;;;;;;;30.14;54.40;101093.03;4990443;27;70365;-41
2022/03/02 00:57:15;;;;;;;;;;;;;;;30.20;54.03;101102.19;4978772;27;65697;-41
2022/03/02 00:59:45;;;;;;;;;;;;;;;30.23;54.08;101109.94;4978808;28;70386;-41
2022/03/02 01:02:15;;;;;;;;;;;;;;;30.25;53.55;101105.94;4981116;28;67051;-42
2022/03/02 01:04:45;;;;;;;;;;;;;;;30.31;53.23;101108.88;4968888;28;70330;-40
2022/03/02 01:07:15;;;;;;;;;;;;;;;30.34;53.24;101113.84;4962294;28;65931;-40
2022/03/02 01:09:45;;;;;;;;;;;;;;;30.37;53.18;101113.44;4978852;28;69734;-41
2022/03/02 01:12:15;;;;;;;;;;;;;;;30.40;53.02;101118.44;4978363;28;66726;-40
2022/03/02 01:14:45;;;;;;;;;;;;;;;30.42;53.28;101127.16;4986083;28;69795;-40
2022/03/02 01:17:15;;;;;;;;;;;;;;;30.44;52.65;101114.25;4996015;27;65340;-40
2022/03/02 01:19:45;;;;;;;;;;;;;;;30.45;52.65;101121.31;4996192;27;69924;-40
2022/03/02 01:22:15;;;;;;;;;;;;;;;30.49;52.20;101128.00;4997907;27;66100;-40
2022/03/02 01:24:45;;;;;;;;;;;;;;;30.50;52.62;101122.34;4992479;28;70669;-40
2022/03/02 01:27:16;;;;;;;;;;;;;;;30.54;52.60;101119.25;4979133;28;66030;-39
2022/03/02 01:29:45;;;;;;;;;;;;;;;30.56;52.44;101128.78;4963211;28;70363;-40
2022/03/02 01:32:15;;;;;;;;;;;;;;;30.58;52.04;101137.53;4958452;28;66301;-41
2022/03/02 01:34:45;;;;;;;;;;;;;;;30.60;52.04;101131.94;4973314;28;69704;-40
2022/03/02 01:37:16;;;;;;;;;;;;;;;30.62;52.29;101132.53;4981314;27;66148;-40
2022/03/02 01:39:46;;;;;;;;;;;;;;;30.63;51.69;101140.44;4981171;27;70287;-40
2022/03/02 01:42:15;;;;;;;;;;;;;;;30.65;51.42;101149.19;4978145;28;66131;-41
2022/03/02 01:44:45;;;;;;;;;;;;;;;30.67;51.58;101152.53;4978692;28;70040;-40
2022/03/02 01:47:15;;;;;;;;;;;;;;;30.68;51.13;101162.31;4975008;28;66191;-40
2022/03/02 01:49:46;;;;;;;;;;;;;;;30.70;51.14;101168.34;4976564;28;68940;-40
2022/03/02 01:52:16;;;;;;;;;;;;;;;30.72;51.06;101174.38;4976873;28;66132;-40
2022/03/02 01:54:46;;;;;;;;;;;;;;;30.75;51.11;101169.56;4981119;28;69977;-40
2022/03/02 01:57:16;;;;;;;;;;;;;;;30.76;51.23;101182.91;4977135;28;65413;-41
2022/03/02 01:59:46;;;;;;;;;;;;;;;30.79;50.80;101192.50;4979473;28;70163;-41
2022/03/02 02:02:16;;;;;;;;;;;;;;;30.79;51.03;101197.91;4977976;28;66498;-40
2022/03/02 02:04:46;;;;;;;;;;;;;;;30.80;51.10;101211.25;4977450;28;70254;-40
2022/03/02 02:07:16;;;;;;;;;;;;;;;30.84;51.02;101200.81;4977229;28;65610;-40
2022/03/02 02:09:47;;;;;;;;;;;;;;;30.84;51.12;101209.81;4979484;28;70126;-40
2022/03/02 02:12:16;;;;;;;;;;;;;;;30.86;50.73;101215.81;4978737;28;66615;-41
2022/03/02 02:14:46;;;;;;;;;;;;;;;30.88;50.96;101207.50;4989221;28;69984;-41
2022/03/02 02:17:16;;;;;;;;;;;;;;;30.88;50.26;101212.91;4978829;28;66874;-40
2022/03/02 02:19:46;;;;;;;;;;;;;;;30.91;50.65;101217.91;4977528;28;70727;-40
2022/03/02 02:22:16;;;;;;;;;;;;;;;30.93;50.69;101226.66;4978461;28;66646;-41
2022/03/02 02:24:46;;;;;;;;;;;;;;;30.94;50.17;101225.59;4980616;27;70390;-40
2022/03/02 02:27:16;;;;;;;;;;;;;;;30.96;50.42;101215.41;4977171;28;66331;-40
2022/03/02 02:29:48;;;;;;;;;;;;;;;30.98;50.07;101213.31;4978872;28;70214;-42
2022/03/02 02:32:51;;;;;;;;;;;;;;;31.00;50.44;101211.19;4978193;28;66352;-40
2022/03/02 02:35:22;;;;;;;;;;;;;;;31.01;50.50;101215.59;4958617;28;70776;-41
2022/03/02 02:37:53;;;;;;;;;;;;;;;31.04;50.27;101212.44;4970723;28;66969;-41
2022/03/02 02:40:23;;;;;;;;;;;;;;;31.06;50.20;101214.94;4972773;28;69674;-41
2022/03/02 02:42:53;;;;;;;;;;;;;;;31.07;50.46;101217.44;4979163;28;66644;-40
2022/03/02 02:45:24;;;;;;;;;;;;;;;31.09;50.39;101215.34;4976475;28;70323;-40
2022/03/02 02:47:55;;;;;;;;;;;;;;;31.10;50.19;101217.00;4980537;27;66011;-40
2022/03/02 02:50:29;;;;;;;;;;;;;;;31.12;49.90;101219.50;4980906;28;69909;-41
2022/03/02 02:53:00;;;;;;;;;;;;;;;31.14;50.24;101223.66;4986910;28;66507;-41
2022/03/02 02:55:30;;;;;;;;;;;;;;;31.15;50.11;101217.19;4978434;28;69461;-41
2022/03/02 02:58:01;;;;;;;;;;;;;;;31.16;49.68;101216.16;4978495;28;66354;-41
2022/03/02 03:00:32;;;;;;;;;;;;;;;31.20;49.48;101215.72;4960397;28;70513;-42
2022/03/02 03:03:03;;;;;;;;;;;;;;;31.22;49.90;101221.75;4977920;28;66171;-41
2022/03/02 03:05:34;;;;;;;;;;;;;;;31.24;49.77;101215.09;4977462;28;69868;-41
2022/03/02 03:08:05;;;;;;;;;;;;;;;31.26;50.07;101214.84;4976836;28;66395;-40
2022/03/02 03:10:35;;;;;;;;;;;;;;;31.26;49.65;101206.72;4965103;28;70441;-40
2022/03/02 03:13:06;;;;;;;;;;;;;;;31.29;49.56;101214.44;4965768;28;66665;-40
2022/03/02 03:15:36;;;;;;;;;;;;;;;31.31;49.49;101202.31;4977066;28;70133;-42
2022/03/02 03:18:06;;;;;;;;;;;;;;;31.31;49.94;101190.66;4963720;28;66630;-41
2022/03/02 03:20:36;;;;;;;;;;;;;;;31.34;48.94;101195.63;4977100;28;69474;-40
2022/03/02 03:23:06;;;;;;;;;;;;;;;31.36;49.22;101193.56;4965056;28;65819;-41
2022/03/02 03:25:36;;;;;;;;;;;;;;;31.39;49.58;101203.97;4979139;28;70112;-41
2022/03/02 03:28:06;;;;;;;;;;;;;;;31.41;48.93;101196.47;4981273;28;66032;-40
2022/03/02 03:30:36;;;;;;;;;;;;;;;31.43;49.08;101186.25;4987280;27;69854;-41
2022/03/02 03:33:06;;;;;;;;;;;;;;;31.45;49.47;101184.13;4992114;27;66412;-41
2022/03/02 03:35:36;;;;;;;;;;;;;;;31.47;49.25;101184.75;4977239;28;70216;-39
2022/03/02 03:38:06;;;;;;;;;;;;;;;31.49;48.92;101185.38;4977748;28;67002;-41
2022/03/02 03:40:36;;;;;;;;;;;;;;;31.50;48.98;101178.06;4967399;28;70391;-41
2022/03/02 03:43:05;;;;;;;;;;;;;;;31.53;48.69;101178.47;4964670;28;66886;-42
2022/03/02 03:45:36;;;;;;;;;;;;;;;31.56;48.94;101177.19;4965192;28;70224;-39
2022/03/02 03:48:06;;;;;;;;;;;;;;;31.58;48.46;101170.50;4991009;27;65212;-40
2022/03/02 03:50:35;;;;;;;;;;;;;;;31.59;48.98;101172.19;4977799;28;69291;-40
2022/03/02 03:53:05;;;;;;;;;;;;;;;31.63;49.18;101172.56;4977982;28;66674;-41
2022/03/02 03:55:35;;;;;;;;;;;;;;;31.64;48.73;101163.38;4975901;27;70781;-40
2022/03/02 03:58:05;;;;;;;;;;;;;;;31.66;48.68;101161.28;4969340;28;65485;-40
2022/03/02 04:00:35;;;;;;;;;;;;;;;31.68;49.04;101163.75;4977993;28;69905;-41
2022/03/02 04:03:05;;;;;;;;;;;;;;;31.71;48.38;101152.50;4977790;28;66689;-41
2022/03/02 04:05:35;;;;;;;;;;;;;;;31.74;48.60;101149.34;4976659;28;69822;-39
2022/03/02 04:08:06;;;;;;;;;;;;;;;31.75;48.23;101143.69;4978449;28;66315;-40
2022/03/02 04:10:35;;;;;;;;;;;;;;;31.78;48.54;101139.72;4994024;27;70785;-40
2022/03/02 04:13:05;;;;;;;;;;;;;;;31.80;48.60;101141.16;4986247;28;65509;-40
2022/03/02 04:15:36;;;;;;;;;;;;;;;31.82;48.14;101138.22;4996698;28;69132;-39
2022/03/02 04:18:07;;;;;;;;;;;;;;;31.85;48.49;101137.78;4971465;28;66012;-41
2022/03/02 04:20:36;;;;;;;;;;;;;;;31.87;48.24;101132.13;4976437;28;69941;-39
2022/03/02 04:23:08;;;;;;;;;;;;;;;31.89;48.12;101133.56;4978005;28;66540;-39
2022/03/02 04:25:37;;;;;;;;;;;;;;;31.91;48.35;101128.78;4976256;28;68912;-40
2022/03/02 04:28:07;;;;;;;;;;;;;;;31.93;48.20;101123.97;4960351;28;65300;-39
2022/03/02 04:30:37;;;;;;;;;;;;;;;31.95;48.35;101124.56;4976891;28;70769;-40
2022/03/02 04:33:07;;;;;;;;;;;;;;;31.96;48.37;101109.97;4976944;28;66662;-41
2022/03/02 04:35:37;;;;;;;;;;;;;;;31.98;48.27;101110.59;4967456;28;69987;-41
2022/03/02 04:38:07;;;;;;;;;;;;;;;31.99;48.21;101106.81;4958705;28;65553;-40
2022/03/02 04:40:36;;;;;;;;;;;;;;;32.01;48.46;101103.84;4971770;28;70252;-40
2022/03/02 04:43:06;;;;;;;;;;;;;;;32.01;48.38;101099.28;4975962;28;65885;-40
2022/03/02 04:45:36;;;;;;;;;;;;;;;32.04;48.45;101095.28;4962396;28;70104;-40
2022/03/02 04:48:08;;;;;;;;;;;;;;;32.07;48.25;101088.56;4965412;28;66238;-40
2022/03/02 04:50:38;;;;;;;;;;;;;;;32.08;48.31;101087.53;4963863;28;69080;-41
2022/03/02 04:53:08;;;;;;;;;;;;;;;32.09;48.53;101081.03;4965178;28;65669;-40
2022/03/02 04:55:38;;;;;;;;;;;;;;;32.11;48.18;101081.66;4971227;28;69352;-41
2022/03/02 04:58:07;;;;;;;;;;;;;;;32.11;48.28;101065.38;4955330;28;66656;-41
2022/03/02 05:00:37;;;;;;;;;;;;;;;32.12;48.11;101061.59;4976046;28;70695;-41
2022/03/02 05:03:07;;;;;;;;;;;;;;;32.13;48.25;101064.09;4974999;28;65308;-41
2022/03/02 05:05:37;;;;;;;;;;;;;;;32.15;48.05;101055.72;4974089;28;69256;-40
2022/03/02 05:08:08;;;;;;;;;;;;;;;32.16;48.45;101057.38;4977278;28;66341;-40
2022/03/02 05:10:38;;;;;;;;;;;;;;;32.17;47.89;101050.88;4972451;28;69531;-41
2022/03/02 05:13:07;;;;;;;;;;;;;;;32.18;48.41;101039.81;4974512;28;66707;-41
2022/03/02 05:15:37;;;;;;;;;;;;;;;32.19;48.19;101036.03;4977832;28;70434;-40
2022/03/02 05:18:08;;;;;;;;;;;;;;;32.20;48.48;101042.28;4978071;28;65920;-41
2022/03/02 05:20:37;;;;;;;;;;;;;;;32.22;48.56;101023.91;4976604;28;70857;-41
2022/03/02 05:23:07;;;;;;;;;;;;;;;32.22;48.07;101026.63;4980590;28;66106;-41
2022/03/02 05:25:37;;;;;;;;;;;;;;;32.23;48.26;101020.13;4978016;28;69362;-40
2022/03/02 05:28:07;;;;;;;;;;;;;;;32.24;48.44;101019.09;4977154;27;66820;-40
2022/03/02 05:30:37;;;;;;;;;;;;;;;32.26;48.25;101014.25;4976407;28;69327;-41
2022/03/02 05:33:07;;;;;;;;;;;;;;;32.27;48.14;101016.75;4974261;28;65762;-41
2022/03/02 05:35:37;;;;;;;;;;;;;;;32.27;48.48;100999.63;4974893;28;70495;-40
2022/03/02 05:38:07;;;;;;;;;;;;;;;32.29;48.35;100992.09;4970335;28;65529;-40
2022/03/02 05:40:36;;;;;;;;;;;;;;;32.31;48.24;100994.56;4985808;27;70456;-40
2022/03/02 05:43:06;;;;;;;;;;;;;;;32.33;48.37;100987.88;4998372;27;66109;-40
2022/03/02 05:45:36;;;;;;;;;;;;;;;32.34;48.15;100986.78;4970846;27;69243;-39
2022/03/02 05:48:06;;;;;;;;;;;;;;;32.36;47.87;100989.28;4998374;27;66644;-40
2022/03/02 05:50:36;;;;;;;;;;;;;;;32.37;48.32;100980.91;4997796;28;70350;-41
2022/03/02 05:53:09;;;;;;;;;;;;;;;32.38;48.25;100985.28;4997438;28;65138;-39
2022/03/02 05:55:38;;;;;;;;;;;;;;;32.40;48.37;100977.75;4998155;27;70011;-40
2022/03/02 05:58:08;;;;;;;;;;;;;;;32.41;48.13;100968.53;4998147;27;66282;-40
2022/03/02 06:00:41;;;;;;;;;;;;;;;32.42;48.06;100970.19;4985660;27;69883;-40
2022/03/02 06:03:11;;;;;;;;;;;;;;;32.44;48.52;100962.66;4988389;27;65098;-40
2022/03/02 06:05:40;;;;;;;;;;;;;;;32.45;48.03;100949.91;4995170;28;70417;-40
2022/03/02 06:08:10;;;;;;;;;;;;;;;32.47;47.68;100951.38;4999053;28;66553;-40
2022/03/02 06:10:40;;;;;;;;;;;;;;;32.49;47.81;100943.00;4998624;27;70303;-40
2022/03/02 06:13:11;;;;;;;;;;;;;;;32.52;47.73;100936.28;4999768;27;67195;-41
2022/03/02 06:15:42;;;;;;;;;;;;;;;32.53;47.71;100937.94;4999558;28;69750;-40
2022/03/02 06:18:12;;;;;;;;;;;;;;;32.56;48.13;100929.31;4999657;27;66216;-39
2022/03/02 06:20:42;;;;;;;;;;;;;;;32.57;47.91;100926.38;4998340;27;71596;-40
2022/03/02 06:23:12;;;;;;;;;;;;;;;32.59;47.93;100909.84;4986744;27;67076;-40
2022/03/02 06:25:42;;;;;;;;;;;;;;;32.61;48.16;100911.28;4998172;27;70396;-40
2022/03/02 06:28:12;;;;;;;;;;;;;;;32.63;47.85;100905.63;4999136;28;66473;-40
2022/03/02 06:30:42;;;;;;;;;;;;;;;32.65;47.95;100898.06;4988255;27;70610;-39
2022/03/02 06:33:14;;;;;;;;;;;;;;;32.67;47.86;100890.50;4979250;28;66476;-39
2022/03/02 06:35:44;;;;;;;;;;;;;;;32.72;48.21;100887.94;4979139;28;70027;-39
2022/03/02 06:38:14;;;;;;;;;;;;;;;32.73;47.84;100876.00;4979441;28;66126;-40
2022/03/02 06:41:11;;;;;;;;;;;;;;;32.76;47.89;100867.38;4972388;28;69161;-40
2022/03/02 06:43:51;;;;;;;;;;;;;;;32.79;47.89;100856.06;4966335;28;65583;-40
2022/03/02 06:46:37;;;;;;;;;;;;;;;32.82;47.63;100866.47;4969764;28;70966;-40
2022/03/02 06:49:16;;;;;;;;;;;;;;;32.85;47.54;100855.13;4988319;28;65314;-41
2022/03/02 06:51:47;;;;;;;;;;;;;;;32.87;47.71;100852.97;4957382;28;70271;-40
2022/03/02 06:54:18;;;;;;;;;;;;;;;32.89;47.46;100837.28;4979013;27;66351;-41
2022/03/02 06:56:50;;;;;;;;;;;;;;;32.92;47.74;100836.81;4977464;28;69901;-40
2022/03/02 06:59:26;;;;;;;;;;;;;;;32.93;47.58;100824.88;4960789;28;65291;-40
2022/03/02 07:01:58;;;;;;;;;;;;;;;32.96;47.44;100825.47;4973171;28;69852;-40
2022/03/02 07:04:32;;;;;;;;;;;;;;;32.97;47.50;100819.81;4978257;28;66423;-41
2022/03/02 07:07:03;;;;;;;;;;;;;;;32.99;47.61;100816.81;4978021;28;69922;-40
2022/03/02 07:09:34;;;;;;;;;;;;;;;33.00;47.76;100810.38;4977288;28;66083;-40
2022/03/02 07:12:08;;;;;;;;;;;;;;;33.01;47.41;100803.88;4978810;28;70163;-41
2022/03/02 07:14:40;;;;;;;;;;;;;;;33.03;47.50;100799.03;4980368;27;66930;-41
2022/03/02 07:17:09;;;;;;;;;;;;;;;33.04;47.39;100797.97;4976635;28;70370;-40
2022/03/02 07:19:40;;;;;;;;;;;;;;;33.06;47.64;100795.84;4978016;28;66017;-41
2022/03/02 07:22:11;;;;;;;;;;;;;;;33.07;47.25;100786.63;4968036;28;70708;-41
2022/03/02 07:24:46;;;;;;;;;;;;;;;33.08;47.68;100780.13;4969035;28;65591;-41
2022/03/02 07:27:16;;;;;;;;;;;;;;;33.09;47.30;100779.06;4980338;28;70076;-40
2022/03/02 07:29:49;;;;;;;;;;;;;;;33.10;47.56;100775.28;4992050;28;67054;-40
2022/03/02 07:32:25;;;;;;;;;;;;;;;33.10;47.73;100769.88;4976709;28;70084;-41
2022/03/02 07:34:56;;;;;;;;;;;;;;;33.11;47.44;100757.91;4976507;28;66726;-40
2022/03/02 07:37:27;;;;;;;;;;;;;;;33.12;47.25;100771.25;4978298;27;71737;-40
2022/03/02 07:39:57;;;;;;;;;;;;;;;33.13;47.53;100755.78;4971767;28;65615;-42
2022/03/02 07:42:27;;;;;;;;;;;;;;;33.13;47.35;100753.06;4978099;28;70144;-41
2022/03/02 07:44:58;;;;;;;;;;;;;;;33.17;47.61;100748.78;4977654;28;66609;-40
2022/03/02 07:47:27;;;;;;;;;;;;;;;33.15;47.57;100742.75;4980229;28;70032;-41
2022/03/02 07:49:57;;;;;;;;;;;;;;;33.06;47.54;100731.44;4980098;28;66621;-41
2022/03/02 07:52:28;;;;;;;;;;;;;;;33.16;47.57;100747.16;4980131;28;70138;-39
2022/03/02 07:55:09;;;;;;;;;;;;;;;33.18;47.58;100744.19;4981249;27;66271;-39
2022/03/02 07:57:55;;;;;;;;;;;;;;;33.17;47.57;100737.94;4967251;28;70604;-39
2022/03/02 08:00:28;;;;;;;;;;;;;;;33.19;47.62;100735.81;4980890;28;66595;-41
2022/03/02 08:02:59;;;;;;;;;;;;;;;33.19;47.50;100730.38;4980034;27;70077;-40
2022/03/02 08:05:29;;;;;;;;;;;;;;;33.20;47.62;100729.28;4979111;28;65728;-40
2022/03/02 08:08:00;;;;;;;;;;;;;;;33.20;47.61;100726.56;4980245;28;70431;-40
2022/03/02 08:10:30;;;;;;;;;;;;;;;33.21;47.72;100728.25;4979948;28;66926;-41
2022/03/02 08:13:02;;;;;;;;;;;;;;;33.22;47.59;100729.88;5026810;28;70162;-40
2022/03/02 08:15:32;;;;;;;;;;;;;;;33.21;47.50;100733.69;4980434;28;66688;-40
2022/03/02 08:18:02;;;;;;;;;;;;;;;33.22;47.60;100735.31;4977867;28;69934;-40
2022/03/02 08:20:52;;;;;;;;;;;;;;;33.23;47.53;100742.41;4977780;28;66551;-40
2022/03/02 08:23:27;;;;;;;;;;;;;;;33.24;47.55;100749.50;4978539;28;70534;-40
2022/03/02 08:25:57;;;;;;;;;;;;;;;33.24;47.59;100749.50;4979734;28;66977;-40
2022/03/02 08:28:35;;;;;;;;;;;;;;;33.24;47.67;100746.78;4979134;28;70155;-40
2022/03/02 08:31:05;;;;;;;;;;;;;;;33.24;47.75;100748.66;4977720;28;65425;-41
2022/03/02 08:33:36;;;;;;;;;;;;;;;33.24;47.82;100749.50;4971667;28;70404;-41
2022/03/02 08:36:08;;;;;;;;;;;;;;;33.22;48.14;100740.75;4971705;28;66276;-40
2022/03/02 08:38:42;;;;;;;;;;;;;;;33.23;48.06;100742.41;4978264;27;70676;-40
2022/03/02 08:41:12;;;;;;;;;;;;;;;33.24;48.24;100741.34;4973948;27;67063;-41
2022/03/02 08:43:43;;;;;;;;;;;;;;;33.23;48.04;100739.69;4990327;28;70767;-40
2022/03/02 08:46:13;;;;;;;;;;;;;;;33.22;48.19;100745.38;4976954;28;66388;-40
2022/03/02 08:48:49;;;;;;;;;;;;;;;33.21;48.30;100747.28;4960401;28;69929;-41
2022/03/02 08:51:23;;;;;;;;;;;;;;;33.20;48.50;100751.03;4955602;28;65720;-40
2022/03/02 08:53:55;;;;;;;;;;;;;;;33.20;48.67;100745.59;4974356;28;69304;-43
2022/03/02 08:56:26;;;;;;;;;;;;;;;33.18;48.91;100747.72;4976731;28;66608;-40
2022/03/02 08:58:56;;;;;;;;;;;;;;;33.18;48.90;100747.72;4978422;27;70302;-40
2022/03/02 09:01:29;;;;;;;;;;;;;;;33.16;48.93;100747.16;4977088;28;65729;-41
2022/03/02 09:04:00;;;;;;;;;;;;;;;33.14;49.28;100746.56;4977698;28;70548;-41
2022/03/02 09:06:31;;;;;;;;;;;;;;;33.13;49.56;100742.19;4976164;28;66919;-40
2022/03/02 09:09:01;;;;;;;;;;;;;;;33.10;49.92;100754.38;4963033;28;70165;-41
2022/03/02 09:11:30;;;;;;;;;;;;;;;33.10;49.77;100759.00;4977219;28;67053;-41
2022/03/02 09:14:01;;;;;;;;;;;;;;;33.07;50.42;100764.88;4976809;28;69665;-41
2022/03/02 09:16:31;;;;;;;;;;;;;;;33.06;50.56;100765.94;4972443;28;65500;-42
2022/03/02 09:19:01;;;;;;;;;;;;;;;33.04;50.87;100771.63;4975539;28;69307;-41
2022/03/02 09:21:32;;;;;;;;;;;;;;;33.00;51.18;100758.75;4980374;28;66905;-41
2022/03/02 09:24:02;;;;;;;;;;;;;;;32.98;50.95;100760.84;4965486;28;70452;-42
2022/03/02 09:26:33;;;;;;;;;;;;;;;32.96;50.82;100757.53;4979414;28;66084;-41
2022/03/02 09:29:05;;;;;;;;;;;;;;;32.93;50.95;100775.97;4966157;28;69957;-41
2022/03/02 09:31:36;;;;;;;;;;;;;;;32.90;51.44;100773.75;4973450;28;65330;-41
2022/03/02 09:34:09;;;;;;;;;;;;;;;32.88;51.54;100778.56;4967280;28;69974;-41
2022/03/02 09:36:39;;;;;;;;;;;;;;;32.86;51.73;100780.69;4963348;28;65567;-41
2022/03/02 09:39:09;;;;;;;;;;;;;;;32.85;51.78;100786.38;4980794;27;70071;-41
2022/03/02 09:41:43;;;;;;;;;;;;;;;32.83;51.71;100778.44;4974516;28;66546;-42
2022/03/02 09:44:14;;;;;;;;;;;;;;;32.81;51.64;100769.72;4970834;28;70267;-42
2022/03/02 09:46:48;;;;;;;;;;;;;;;32.79;51.68;100771.84;4961357;28;66168;-41
2022/03/02 09:49:22;;;;;;;;;;;;;;;32.78;51.74;100775.63;4981502;27;69414;-42
2022/03/02 09:51:58;;;;;;;;;;;;;;;32.75;51.87;100770.66;4978980;28;66582;-41
2022/03/02 09:54:29;;;;;;;;;;;;;;;32.74;51.72;100769.00;4979076;28;69466;-40
2022/03/02 09:57:02;;;;;;;;;;;;;;;32.74;52.07;100773.63;4981380;28;65724;-40
2022/03/02 09:59:35;;;;;;;;;;;;;;;32.70;52.06;100770.53;4980445;27;69931;-40
2022/03/02 10:02:10;;;;;;;;;;;;;;;32.71;52.34;100772.19;4974842;28;66345;-42
2022/03/02 10:04:45;;;;;;;;;;;;;;;32.68;52.15;100778.06;4997988;28;70386;-41
2022/03/02 10:07:27;;;;;;;;;;;;;;;32.67;52.25;100788.13;4983360;27;66345;-41
2022/03/02 10:10:05;;;;;;;;;;;;;;;32.66;52.52;100796.53;4979411;28;69867;-41
2022/03/02 10:12:35;;;;;;;;;;;;;;;32.64;52.42;100804.06;4966956;27;66005;-40
2022/03/02 10:15:10;;;;;;;;;;;;;;;32.61;52.29;100805.34;4966961;28;69402;-41
2022/03/02 10:17:41;;;;;;;;;;;;;;;32.60;52.66;100795.56;4977093;28;66326;-41
2022/03/02 10:20:14;;;;;;;;;;;;;;;32.59;52.53;100798.50;4965916;28;69796;-42
2022/03/02 10:22:54;;;;;;;;;;;;;;;32.59;52.98;100795.78;4976393;28;66294;-41
2022/03/02 10:25:42;;;;;;;;;;;;;;;32.61;53.13;100793.69;4974711;28;69987;-41
2022/03/02 10:28:16;;;;;;;;;;;;;;;32.67;54.68;100792.72;4975217;28;59988;-40
2022/03/02 10:30:57;;;;;;;;;;;;;;;32.54;55.42;100798.38;4976560;27;69395;-40
2022/03/02 10:33:35;;;;;;;;;;;;;;;32.47;56.67;100806.63;4976747;28;66239;-41
2022/03/02 10:36:07;;;;;;;;;;;;;;;32.41;56.80;100800.22;4972890;28;69432;-40
2022/03/02 10:38:59;;;;;;;;;;;;;;;32.38;57.46;100806.13;4972067;28;65088;-41
2022/03/02 10:41:33;;;;;;;;;;;;;;;32.34;57.69;100799.47;4972444;28;69619;-39
2022/03/02 10:44:05;;;;;;;;;;;;;;;32.29;57.87;100810.22;4972635;28;67069;-39
2022/03/02 10:46:40;;;;;;;;;;;;;;;32.24;58.03;100821.78;4978169;28;69344;-41
2022/03/02 10:49:14;;;;;;;;;;;;;;;32.20;58.35;100831.41;4956395;28;66327;-39
2022/03/02 10:51:43;;;;;;;;;;;;;;;32.16;58.65;100834.84;4976507;28;70211;-40
2022/03/02 10:54:18;;;;;;;;;;;;;;;32.14;58.55;100837.78;4977230;28;66236;-40
2022/03/02 10:56:49;;;;;;;;;;;;;;;32.02;58.65;100824.16;4979201;28;70192;-40
2022/03/02 10:59:21;;;;;;;;;;;;;;;32.01;58.64;100838.81;4973331;28;66164;-44
2022/03/02 11:01:52;;;;;;;;;;;;;;;31.98;58.46;100844.69;4978419;27;70292;-40
2022/03/02 11:04:23;;;;;;;;;;;;;;;31.94;58.86;100858.94;4955881;28;66903;-41
2022/03/02 11:06:55;;;;;;;;;;;;;;;31.88;58.78;100867.94;4972506;28;68348;-39
2022/03/02 11:09:48;;;;;;;;;;;;;;;31.89;58.57;100878.56;4966352;28;66469;-40
2022/03/02 11:12:21;;;;;;;;;;;;;;;31.82;59.23;100875.94;4980421;28;69743;-39
2022/03/02 11:15:01;;;;;;;;;;;;;;;31.82;59.11;100888.69;4996539;28;66668;-40
2022/03/02 11:17:31;;;;;;;;;;;;;;;31.82;59.47;100881.38;4967800;28;70034;-40
2022/03/02 11:20:10;;;;;;;;;;;;;;;31.77;59.71;100886.63;4979703;27;67067;-40
2022/03/02 11:22:50;;;;;;;;;;;;;;;31.75;59.19;100883.31;4978215;28;70506;-39
2022/03/02 11:25:24;;;;;;;;;;;;;;;31.60;59.31;100866.59;4955540;28;65303;-41
2022/03/02 11:27:55;;;;;;;;;;;;;;;31.68;59.80;100893.44;4976101;28;70961;-41
2022/03/02 11:30:28;;;;;;;;;;;;;;;31.67;60.00;100894.47;4944066;28;65442;-41
2022/03/02 11:33:05;;;;;;;;;;;;;;;31.64;59.96;100897.63;4974669;28;69437;-40
2022/03/02 11:35:36;;;;;;;;;;;;;;;31.63;59.60;100900.56;4976323;28;66469;-41
2022/03/02 11:38:06;;;;;;;;;;;;;;;31.61;60.02;100904.31;4973551;28;69957;-39
2022/03/02 11:40:38;;;;;;;;;;;;;;;31.62;60.24;100905.16;4969678;28;66141;-41
2022/03/02 11:43:18;;;;;;;;;;;;;;;31.61;59.71;100904.31;4974770;28;71693;-40
2022/03/02 11:45:57;;;;;;;;;;;;;;;31.62;60.45;100907.84;4970906;28;65796;-40
2022/03/02 11:48:29;;;;;;;;;;;;;;;31.60;60.36;100908.09;4973313;28;69435;-40
2022/03/02 11:51:02;;;;;;;;;;;;;;;31.57;60.63;100916.69;4972411;28;66086;-41
2022/03/02 11:53:33;;;;;;;;;;;;;;;31.55;61.09;100916.06;4961139;28;69868;-40
2022/03/02 11:56:04;;;;;;;;;;;;;;;31.58;60.48;100929.19;4975418;28;65564;-41
2022/03/02 11:58:54;;;;;;;;;;;;;;;31.57;60.83;100932.97;4975286;28;68972;-41
2022/03/02 12:01:43;;;;;;;;;;;;;;;31.57;60.86;100945.69;4970834;28;66923;-41
2022/03/02 12:04:31;;;;;;;;;;;;;;;31.57;60.63;100945.69;4971477;28;69850;-40
2022/03/02 12:07:05;;;;;;;;;;;;;;;31.57;60.92;100946.50;4973215;28;65863;-40
2022/03/02 12:09:37;;;;;;;;;;;;;;;31.58;60.99;100950.88;4971330;28;70132;-41
2022/03/02 12:12:10;;;;;;;;;;;;;;;31.61;61.19;100947.72;4974191;27;65363;-41
2022/03/02 12:14:45;;;;;;;;;;;;;;;31.66;61.28;100954.34;4974979;28;70047;-40
2022/03/02 12:17:29;;;;;;;;;;;;;;;31.68;60.79;100954.94;4973355;28;66134;-42
2022/03/02 12:20:00;;;;;;;;;;;;;;;31.59;60.78;100960.69;4959647;28;69987;-40
2022/03/02 12:22:31;;;;;;;;;;;;;;;31.62;60.90;100964.81;4974508;28;65768;-42
2022/03/02 12:25:03;;;;;;;;;;;;;;;31.59;61.46;100966.09;4973213;28;70365;-42
2022/03/02 12:27:32;;;;;;;;;;;;;;;31.60;61.15;100973.19;4971927;28;67129;-41
2022/03/02 12:30:05;;;;;;;;;;;;;;;31.60;61.49;100981.31;4973189;28;70283;-42
2022/03/02 12:32:36;;;;;;;;;;;;;;;31.59;61.67;100982.38;4972620;28;66690;-42
2022/03/02 12:35:08;;;;;;;;;;;;;;;31.58;61.29;100991.53;4940761;28;70189;-42
2022/03/02 12:37:38;;;;;;;;;;;;;;;31.56;61.97;100990.94;4972678;28;65427;-42
2022/03/02 12:40:10;;;;;;;;;;;;;;;31.59;61.56;100993.22;4975720;28;70247;-41
2022/03/02 12:42:43;;;;;;;;;;;;;;;31.58;62.24;100996.16;4972726;28;66438;-41
2022/03/02 12:45:13;;;;;;;;;;;;;;;31.58;62.31;100996.97;4973580;28;70277;-40
2022/03/02 12:47:43;;;;;;;;;;;;;;;31.59;63.30;100998.66;4974524;28;66317;-41
2022/03/02 12:50:14;;;;;;;;;;;;;;;31.60;62.45;101000.28;4955210;28;70373;-43
2022/03/02 12:52:47;;;;;;;;;;;;;;;31.58;63.15;100996.97;4977768;28;66477;-42
2022/03/02 12:55:17;;;;;;;;;;;;;;;31.64;62.44;101010.69;4961662;28;69052;-41
2022/03/02 12:57:50;;;;;;;;;;;;;;;31.63;62.44;101009.03;4943269;28;66495;-41
2022/03/02 13:00:21;;;;;;;;;;;;;;;31.60;63.00;101013.84;4987541;28;68898;-40